Time;durP1;ratioP1;P1;durP2;ratioP2;P2;SDS_P1;SDS_P2;PMS_P1;PMS_P2;Temp;Humidity;BMP_temperature;BMP_pressure;BME280_temperature;BME280_humidity;BME280_pressure;Samples;Min_cycle;Max_cycle;Signal;HPM_P1;HPM_P2
2022/02/28 00:01:07;;;;;;;42.10;13.90;;;;;;;-1.34;88.78;102690.80;108222;1277;60282;-77
2022/02/28 00:03:35;;;;;;;54.80;17.50;;;;;;;-1.35;89.08;102690.48;108193;1275;76055;-77
2022/02/28 00:06:04;;;;;;;64.70;18.10;;;;;;;-1.35;89.07;102689.27;108100;1277;72603;-77
2022/02/28 00:08:31;;;;;;;56.30;19.30;;;;;;;-1.36;89.33;102685.46;108226;1277;73912;-77
2022/02/28 00:10:58;;;;;;;48.30;16.20;;;;;;;-1.36;89.60;102692.08;107983;1277;61591;-77
2022/02/28 00:13:27;;;;;;;74.30;21.90;;;;;;;-1.35;89.80;102691.89;108208;1277;60553;-77
2022/02/28 00:15:54;;;;;;;54.60;17.10;;;;;;;-1.36;89.86;102686.69;108188;1276;75206;-77
2022/02/28 00:18:21;;;;;;;47.00;12.50;;;;;;;-1.36;89.92;102685.48;108032;1277;72569;-77
2022/02/28 00:20:47;;;;;;;48.60;14.80;;;;;;;-1.37;90.09;102689.33;108232;1276;59174;-77
2022/02/28 00:23:14;;;;;;;58.40;16.60;;;;;;;-1.38;90.08;102689.70;108196;1276;59056;-77
2022/02/28 00:25:40;;;;;;;59.50;18.50;;;;;;;-1.39;89.90;102691.65;108253;1276;59034;-77
2022/02/28 00:28:07;;;;;;;53.10;16.10;;;;;;;-1.42;89.88;102688.27;108090;1277;59059;-77
2022/02/28 00:30:35;;;;;;;78.90;19.10;;;;;;;-1.45;89.93;102693.54;108063;1277;72924;-77
2022/02/28 00:33:03;;;;;;;56.80;18.30;;;;;;;-1.47;89.98;102692.75;108238;1276;72940;-77
2022/02/28 00:35:29;;;;;;;79.70;22.10;;;;;;;-1.50;89.96;102691.29;108108;1277;61820;-77
2022/02/28 00:37:56;;;;;;;71.50;21.10;;;;;;;-1.53;89.99;102685.66;108247;1277;59265;-77
2022/02/28 00:40:23;;;;;;;69.10;19.90;;;;;;;-1.56;89.91;102688.37;108242;1276;74920;-76
2022/02/28 00:42:50;;;;;;;60.30;19.50;;;;;;;-1.60;90.06;102683.95;107784;1277;71416;-77
2022/02/28 00:45:17;;;;;;;70.90;20.20;;;;;;;-1.64;90.07;102682.19;108202;1277;59814;-77
2022/02/28 00:47:43;;;;;;;77.70;22.00;;;;;;;-1.68;90.19;102677.28;108234;1277;59136;-77
2022/02/28 00:50:11;;;;;;;77.70;21.20;;;;;;;-1.73;90.23;102677.23;108213;1276;59045;-77
2022/02/28 00:52:39;;;;;;;79.20;24.30;;;;;;;-1.77;90.30;102677.88;108121;1277;76497;-77
2022/02/28 00:55:06;;;;;;;72.00;20.70;;;;;;;-1.80;90.24;102677.29;108079;1277;72337;-76
2022/02/28 00:57:33;;;;;;;82.30;24.40;;;;;;;-1.84;90.40;102682.42;108216;1277;72907;-76
2022/02/28 00:59:59;;;;;;;70.50;22.40;;;;;;;-1.88;90.41;102678.55;107976;1277;59196;-76
2022/02/28 01:02:26;;;;;;;58.00;18.60;;;;;;;-1.91;90.54;102681.09;108230;1276;59178;-76
2022/02/28 01:04:52;;;;;;;64.90;20.60;;;;;;;-1.95;90.73;102678.42;108095;1277;74514;-76
2022/02/28 01:07:19;;;;;;;73.00;21.20;;;;;;;-1.98;90.86;102678.16;108231;1277;59258;-76
2022/02/28 01:09:45;;;;;;;77.00;22.70;;;;;;;-2.01;90.74;102675.65;108227;1276;58963;-77
2022/02/28 01:12:12;;;;;;;81.80;22.30;;;;;;;-2.04;90.94;102670.54;108224;1277;59644;-77
2022/02/28 01:14:38;;;;;;;44.30;12.70;;;;;;;-2.08;90.82;102665.11;108105;1277;59133;-76
2022/02/28 01:17:06;;;;;;;66.30;19.50;;;;;;;-2.13;90.90;102662.27;108207;1277;59454;-77
2022/02/28 01:19:34;;;;;;;77.30;22.80;;;;;;;-2.17;91.09;102655.30;108119;1277;71451;-76
2022/02/28 01:22:02;;;;;;;72.30;21.80;;;;;;;-2.20;91.26;102653.52;108066;1278;73249;-78
2022/02/28 01:24:28;;;;;;;73.70;23.40;;;;;;;-2.23;91.49;102652.71;108269;1277;61351;-76
2022/02/28 01:26:55;;;;;;;81.30;21.80;;;;;;;-2.24;91.76;102656.22;108201;1277;61005;-76
2022/02/28 01:29:22;;;;;;;89.00;23.60;;;;;;;-2.25;91.97;102655.03;108241;1277;76250;-76
2022/02/28 01:31:51;;;;;;;61.30;19.80;;;;;;;-2.26;92.06;102650.55;108143;1277;71269;-77
2022/02/28 01:34:17;;;;;;;73.70;22.80;;;;;;;-2.28;92.25;102648.85;108190;1276;71914;-77
2022/02/28 01:36:44;;;;;;;77.50;21.00;;;;;;;-2.29;92.38;102650.27;108237;1277;59168;-76
2022/02/28 01:39:10;;;;;;;77.40;23.30;;;;;;;-2.30;92.66;102650.63;108217;1277;60283;-77
2022/02/28 01:41:37;;;;;;;63.80;20.90;;;;;;;-2.32;92.71;102650.52;108206;1277;76320;-77
2022/02/28 01:44:08;;;;;;;72.00;21.40;;;;;;;-2.30;93.03;102649.10;108241;1276;59728;-76
2022/02/28 01:46:35;;;;;;;83.60;21.70;;;;;;;-2.31;93.04;102644.60;107981;1277;73038;-77
2022/02/28 01:49:02;;;;;;;82.40;22.60;;;;;;;-2.31;93.25;102643.75;107983;1277;62123;-76
2022/02/28 01:51:29;;;;;;;82.60;23.10;;;;;;;-2.32;93.33;102638.23;108190;1277;61477;-77
2022/02/28 01:53:57;;;;;;;62.50;19.90;;;;;;;-2.31;93.47;102638.56;108266;1277;75678;-77
2022/02/28 01:56:24;;;;;;;69.90;20.00;;;;;;;-2.31;93.54;102640.11;108270;1277;59592;-77
2022/02/28 01:58:50;;;;;;;61.00;19.60;;;;;;;-2.30;93.66;102641.48;108203;1277;58984;-76
2022/02/28 02:01:17;;;;;;;92.60;25.00;;;;;;;-2.30;93.72;102638.53;108221;1276;59648;-77
2022/02/28 02:03:43;;;;;;;92.40;25.00;;;;;;;-2.31;93.52;102636.15;108250;1277;60534;-78
2022/02/28 02:06:12;;;;;;;64.10;21.30;;;;;;;-2.33;93.53;102632.03;108221;1276;59419;-77
2022/02/28 02:08:39;;;;;;;81.20;22.20;;;;;;;-2.34;93.61;102626.16;108082;1278;71536;-76
2022/02/28 02:11:06;;;;;;;87.90;23.90;;;;;;;-2.35;93.43;102632.44;108182;1277;72949;-77
2022/02/28 02:13:33;;;;;;;80.70;24.20;;;;;;;-2.37;93.52;102634.23;108192;1277;60406;-76
2022/02/28 02:15:59;;;;;;;83.50;23.50;;;;;;;-2.39;93.60;102633.06;108189;1276;60263;-76
2022/02/28 02:18:26;;;;;;;76.30;22.10;;;;;;;-2.41;93.68;102635.20;108183;1277;74337;-76
2022/02/28 02:20:53;;;;;;;96.80;26.10;;;;;;;-2.42;93.79;102636.10;108239;1277;59174;-76
2022/02/28 02:23:20;;;;;;;74.90;22.00;;;;;;;-2.44;93.76;102633.36;108183;1276;74236;-76
2022/02/28 02:25:47;;;;;;;85.80;20.90;;;;;;;-2.45;94.02;102640.51;108059;1277;62227;-77
2022/02/28 02:28:19;;;;;;;75.30;23.30;;;;;;;-2.47;93.90;102634.34;107987;1277;61730;-74
2022/02/28 02:30:51;;;;;;;86.50;23.20;;;;;;;-2.50;93.82;102632.67;108225;1277;76037;-76
2022/02/28 02:33:19;;;;;;;75.30;22.70;;;;;;;-2.51;94.10;102631.33;108138;1276;71284;-77
2022/02/28 02:35:50;;;;;;;82.60;23.40;;;;;;;-2.53;94.12;102631.36;108228;1277;73083;-75
2022/02/28 02:38:17;;;;;;;82.90;24.00;;;;;;;-2.54;94.22;102631.23;108088;1278;61230;-76
2022/02/28 02:40:44;;;;;;;74.10;22.10;;;;;;;-2.56;94.34;102627.64;108205;1277;60546;-77
2022/02/28 02:43:12;;;;;;;96.80;26.80;;;;;;;-2.58;94.35;102625.09;108123;1277;75953;-76
2022/02/28 02:45:38;;;;;;;73.30;22.90;;;;;;;-2.59;94.43;102621.49;108110;1277;59139;-75
2022/02/28 02:48:11;;;;;;;84.10;23.90;;;;;;;-2.59;94.62;102622.37;108226;1277;73077;-77
2022/02/28 02:50:38;;;;;;;88.40;25.30;;;;;;;-2.59;94.58;102621.84;108142;1277;61101;-76
2022/02/28 02:53:04;;;;;;;76.00;24.00;;;;;;;-2.61;94.75;102617.38;108232;1277;60464;-75
2022/02/28 02:55:32;;;;;;;76.50;23.60;;;;;;;-2.60;94.89;102621.36;108240;1276;59730;-75
2022/02/28 02:57:58;;;;;;;95.30;26.40;;;;;;;-2.61;95.02;102622.41;108190;1277;72505;-77
2022/02/28 03:00:25;;;;;;;91.10;26.00;;;;;;;-2.62;95.04;102619.31;108220;1277;74185;-76
2022/02/28 03:02:51;;;;;;;64.20;20.00;;;;;;;-2.62;94.94;102623.66;108224;1277;58643;-76
2022/02/28 03:05:19;;;;;;;72.90;24.10;;;;;;;-2.65;94.84;102621.33;108238;1277;60414;-76
2022/02/28 03:07:45;;;;;;;85.00;24.50;;;;;;;-2.67;94.79;102621.20;108196;1277;58425;-76
2022/02/28 03:10:12;;;;;;;79.30;23.60;;;;;;;-2.69;94.82;102626.45;108140;1278;59619;-76
2022/02/28 03:12:39;;;;;;;95.20;25.40;;;;;;;-2.70;94.99;102631.66;108195;1276;59339;-76
2022/02/28 03:15:06;;;;;;;83.60;24.00;;;;;;;-2.72;94.96;102627.21;108210;1277;61545;-76
2022/02/28 03:17:33;;;;;;;95.60;26.30;;;;;;;-2.74;94.91;102630.73;108212;1276;60516;-77
2022/02/28 03:20:00;;;;;;;96.00;25.70;;;;;;;-2.76;94.88;102627.49;107960;1280;74856;-76
2022/02/28 03:22:27;;;;;;;79.70;23.90;;;;;;;-2.78;94.81;102622.87;108217;1276;71638;-77
2022/02/28 03:24:53;;;;;;;83.60;24.70;;;;;;;-2.80;94.72;102626.92;107996;1277;74104;-76
2022/02/28 03:27:20;;;;;;;85.00;25.40;;;;;;;-2.82;94.88;102624.91;108175;1277;59265;-77
2022/02/28 03:29:47;;;;;;;83.70;26.30;;;;;;;-2.84;95.12;102626.52;108007;1277;60458;-77
2022/02/28 03:32:13;;;;;;;79.40;24.20;;;;;;;-2.85;95.21;102626.00;108224;1277;59219;-77
2022/02/28 03:34:40;;;;;;;87.80;25.30;;;;;;;-2.87;95.41;102621.20;108251;1277;71341;-77
2022/02/28 03:37:06;;;;;;;75.70;25.50;;;;;;;-2.89;95.41;102623.15;108209;1277;73950;-76
2022/02/28 03:39:33;;;;;;;74.70;22.30;;;;;;;-2.89;95.50;102620.05;108215;1277;60230;-77
2022/02/28 03:41:59;;;;;;;100.90;25.60;;;;;;;-2.90;95.53;102624.04;108197;1277;59146;-76
2022/02/28 03:44:26;;;;;;;85.10;25.70;;;;;;;-2.90;95.67;102625.61;108209;1277;59056;-77
2022/02/28 03:46:52;;;;;;;80.50;24.70;;;;;;;-2.91;95.88;102627.19;108255;1277;59238;-77
2022/02/28 03:49:20;;;;;;;92.90;26.10;;;;;;;-2.90;96.00;102625.95;108210;1277;59084;-77
2022/02/28 03:51:46;;;;;;;100.50;28.50;;;;;;;-2.89;96.12;102624.20;108116;1277;63041;-77
2022/02/28 03:54:14;;;;;;;88.20;24.30;;;;;;;-2.89;96.39;102626.61;108033;1278;61404;-76
2022/02/28 03:56:42;;;;;;;81.30;27.60;;;;;;;-2.88;96.30;102626.06;108227;1277;75991;-76
2022/02/28 03:59:12;;;;;;;84.50;25.80;;;;;;;-2.88;96.23;102630.05;108130;1277;71209;-77
2022/02/28 04:01:38;;;;;;;84.70;25.60;;;;;;;-2.90;96.24;102632.17;107964;1280;72962;-77
2022/02/28 04:04:05;;;;;;;81.90;26.70;;;;;;;-2.89;96.29;102634.77;108198;1277;62542;-77
2022/02/28 04:06:32;;;;;;;91.40;27.90;;;;;;;-2.90;96.15;102634.42;107931;1279;59658;-76
2022/02/28 04:08:59;;;;;;;90.00;26.20;;;;;;;-2.92;96.13;102634.48;108257;1276;74875;-76
2022/02/28 04:11:26;;;;;;;84.60;26.00;;;;;;;-2.92;96.26;102628.08;108238;1277;71325;-77
2022/02/28 04:13:53;;;;;;;92.00;26.10;;;;;;;-2.93;96.31;102632.27;108158;1276;73973;-77
2022/02/28 04:16:19;;;;;;;91.30;25.80;;;;;;;-2.94;96.13;102631.61;108232;1276;59261;-77
2022/02/28 04:18:46;;;;;;;95.50;26.80;;;;;;;-2.96;96.20;102632.52;108231;1277;61678;-76
2022/02/28 04:21:13;;;;;;;90.00;24.90;;;;;;;-2.98;96.12;102635.52;108083;1277;75193;-77
2022/02/28 04:23:41;;;;;;;95.60;27.40;;;;;;;-2.99;96.24;102631.05;108231;1277;72143;-77
2022/02/28 04:26:08;;;;;;;95.90;27.40;;;;;;;-3.01;96.22;102631.26;108228;1277;74525;-77
2022/02/28 04:28:34;;;;;;;91.90;25.40;;;;;;;-3.02;96.38;102626.80;108176;1277;59112;-76
2022/02/28 04:31:00;;;;;;;90.20;25.00;;;;;;;-3.02;96.52;102628.01;108005;1279;59189;-76
2022/02/28 04:33:29;;;;;;;82.30;25.00;;;;;;;-3.03;96.61;102632.02;108243;1276;74920;-77
2022/02/28 04:35:55;;;;;;;90.60;24.60;;;;;;;-3.04;96.80;102636.52;108204;1277;59269;-77
2022/02/28 04:38:22;;;;;;;106.20;27.90;;;;;;;-3.05;96.74;102632.06;108218;1277;59534;-76
2022/02/28 04:40:48;;;;;;;92.40;26.00;;;;;;;-3.06;96.69;102632.08;108203;1277;58600;-76
2022/02/28 04:43:15;;;;;;;114.50;30.20;;;;;;;-3.08;96.80;102633.69;107859;1277;59099;-76
2022/02/28 04:45:41;;;;;;;96.90;27.50;;;;;;;-3.09;96.76;102636.48;108034;1279;59646;-76
2022/02/28 04:48:08;;;;;;;93.10;26.30;;;;;;;-3.11;96.81;102640.00;108199;1277;59776;-76
2022/02/28 04:50:35;;;;;;;90.80;25.50;;;;;;;-3.11;97.05;102637.24;108037;1278;59217;-77
2022/02/28 04:53:01;;;;;;;94.20;28.20;;;;;;;-3.13;96.99;102635.02;108274;1277;59363;-77
2022/02/28 04:55:28;;;;;;;79.60;25.20;;;;;;;-3.13;97.03;102634.00;108214;1277;59203;-76
2022/02/28 04:57:54;;;;;;;83.30;23.00;;;;;;;-3.14;97.17;102635.23;107982;1277;74915;-75
2022/02/28 05:00:21;;;;;;;93.30;29.20;;;;;;;-3.14;97.44;102634.20;108236;1277;59608;-77
2022/02/28 05:02:47;;;;;;;94.80;29.20;;;;;;;-3.16;97.47;102635.79;108250;1277;72863;-77
2022/02/28 05:05:14;;;;;;;82.80;26.80;;;;;;;-3.17;97.43;102635.63;108220;1277;62255;-77
2022/02/28 05:07:40;;;;;;;83.50;25.30;;;;;;;-3.18;97.50;102631.02;108262;1277;59067;-76
2022/02/28 05:10:07;;;;;;;86.10;27.30;;;;;;;-3.19;97.54;102633.10;108255;1277;60405;-77
2022/02/28 05:12:34;;;;;;;89.90;26.50;;;;;;;-3.20;97.51;102632.97;108144;1277;72400;-78
2022/02/28 05:15:00;;;;;;;89.80;27.30;;;;;;;-3.21;97.60;102631.44;108240;1276;59170;-77
2022/02/28 05:17:27;;;;;;;94.10;26.60;;;;;;;-3.23;97.60;102632.36;108206;1277;59443;-76
2022/02/28 05:19:53;;;;;;;94.40;27.90;;;;;;;-3.26;97.68;102630.16;108229;1277;59128;-76
2022/02/28 05:22:23;;;;;;;91.10;27.60;;;;;;;-3.28;97.83;102632.63;108177;1277;59173;-77
2022/02/28 05:24:49;;;;;;;92.30;26.30;;;;;;;-3.30;97.78;102632.67;108016;1279;71104;-77
2022/02/28 05:27:16;;;;;;;92.50;25.60;;;;;;;-3.30;97.93;102635.10;107984;1277;73899;-78
2022/02/28 05:29:42;;;;;;;80.70;24.20;;;;;;;-3.32;98.15;102633.95;108220;1276;59133;-78
2022/02/28 05:32:09;;;;;;;74.90;22.80;;;;;;;-3.34;98.20;102631.90;108152;1277;59071;-77
2022/02/28 05:34:36;;;;;;;90.60;26.30;;;;;;;-3.36;98.09;102630.93;108010;1278;74930;-77
2022/02/28 05:37:03;;;;;;;74.80;23.10;;;;;;;-3.37;98.13;102633.91;108237;1276;70757;-78
2022/02/28 05:39:30;;;;;;;105.40;26.30;;;;;;;-3.39;98.11;102632.91;108182;1277;72643;-77
2022/02/28 05:41:58;;;;;;;82.10;23.40;;;;;;;-3.42;98.19;102632.30;108237;1277;62958;-77
2022/02/28 05:44:25;;;;;;;84.10;25.60;;;;;;;-3.44;98.34;102632.69;108229;1277;59377;-77
2022/02/28 05:46:51;;;;;;;68.20;22.80;;;;;;;-3.46;98.45;102634.98;108231;1277;59265;-77
2022/02/28 05:49:17;;;;;;;90.40;24.30;;;;;;;-3.46;98.55;102639.66;108274;1277;59160;-78
2022/02/28 05:51:44;;;;;;;77.10;24.00;;;;;;;-3.47;98.75;102638.98;108230;1277;60179;-76
2022/02/28 05:54:10;;;;;;;79.30;25.10;;;;;;;-3.48;98.82;102638.48;108104;1277;60174;-76
2022/02/28 05:56:38;;;;;;;87.60;23.80;;;;;;;-3.49;98.74;102635.56;108269;1277;60019;-76
2022/02/28 05:59:04;;;;;;;75.90;23.40;;;;;;;-3.49;98.88;102635.73;108089;1277;74948;-77
2022/02/28 06:01:32;;;;;;;97.60;24.60;;;;;;;-3.49;98.87;102643.52;108245;1277;59305;-76
2022/02/28 06:03:58;;;;;;;68.40;20.60;;;;;;;-3.49;99.02;102639.00;108214;1277;73956;-77
2022/02/28 06:06:25;;;;;;;50.00;17.30;;;;;;;-3.46;99.63;102640.17;108197;1277;59215;-76
2022/02/28 06:08:51;;;;;;;82.60;22.80;;;;;;;-3.44;99.75;102640.46;108191;1277;59039;-76
2022/02/28 06:11:18;;;;;;;89.40;22.80;;;;;;;-3.42;99.74;102643.20;108230;1277;59388;-77
2022/02/28 06:13:44;;;;;;;77.90;23.90;;;;;;;-3.40;99.76;102644.69;108084;1277;71331;-76
2022/02/28 06:16:11;;;;;;;75.20;22.50;;;;;;;-3.39;99.68;102647.09;108192;1277;59352;-76
2022/02/28 06:18:38;;;;;;;94.50;26.20;;;;;;;-3.37;99.68;102649.64;108232;1276;62234;-77
2022/02/28 06:21:04;;;;;;;62.80;16.70;;;;;;;-3.34;99.85;102648.70;107954;1277;59253;-76
2022/02/28 06:23:31;;;;;;;76.00;21.30;;;;;;;-3.31;100.00;102648.44;108167;1277;59202;-77
2022/02/28 06:26:00;;;;;;;114.80;28.80;;;;;;;-3.27;100.00;102650.08;108149;1277;71544;-77
2022/02/28 06:28:32;;;;;;;85.10;25.00;;;;;;;-3.25;99.96;102653.66;108016;1279;74023;-77
2022/02/28 06:30:59;;;;;;;65.60;20.20;;;;;;;-3.22;99.96;102650.48;108211;1277;62685;-77
2022/02/28 06:33:28;;;;;;;57.30;18.10;;;;;;;-3.18;100.00;102660.77;108127;1277;60599;-76
2022/02/28 06:35:55;;;;;;;56.20;16.60;;;;;;;-3.15;100.00;102662.24;108229;1276;75779;-76
2022/02/28 06:38:22;;;;;;;85.50;25.00;;;;;;;-3.12;100.00;102663.41;108201;1277;72433;-75
2022/02/28 06:40:49;;;;;;;82.50;26.50;;;;;;;-3.08;100.00;102667.61;108207;1277;59895;-76
2022/02/28 06:43:17;;;;;;;57.20;18.60;;;;;;;-3.02;100.00;102669.38;108214;1277;61003;-76
2022/02/28 06:45:44;;;;;;;60.40;18.10;;;;;;;-2.95;100.00;102670.76;108231;1277;61372;-75
2022/02/28 06:48:10;;;;;;;55.20;18.10;;;;;;;-2.87;100.00;102674.19;108123;1277;75836;-74
2022/02/28 06:50:37;;;;;;;75.20;25.00;;;;;;;-2.81;100.00;102682.86;108226;1277;59250;-75
2022/02/28 06:53:03;;;;;;;69.20;22.50;;;;;;;-2.75;100.00;102681.31;108230;1277;59210;-75
2022/02/28 06:55:35;;;;;;;70.60;20.20;;;;;;;-2.68;100.00;102682.17;108164;1276;62466;-76
2022/02/28 06:58:01;;;;;;;54.60;18.10;;;;;;;-2.62;100.00;102682.04;108117;1277;60717;-77
2022/02/28 07:00:30;;;;;;;62.50;19.90;;;;;;;-2.55;100.00;102677.85;108143;1277;76068;-77
2022/02/28 07:02:56;;;;;;;73.00;21.20;;;;;;;-2.45;100.00;102680.89;108222;1276;71376;-75
2022/02/28 07:05:23;;;;;;;70.20;22.80;;;;;;;-2.38;100.00;102676.88;108148;1277;72689;-77
2022/02/28 07:07:50;;;;;;;50.20;15.00;;;;;;;-2.31;100.00;102682.05;108196;1277;59464;-75
2022/02/28 07:10:16;;;;;;;41.30;14.40;;;;;;;-2.26;100.00;102681.22;108072;1277;59187;-77
2022/02/28 07:12:43;;;;;;;38.20;14.90;;;;;;;-2.20;100.00;102681.21;108228;1277;58984;-76
2022/02/28 07:15:09;;;;;;;44.20;15.30;;;;;;;-2.14;100.00;102683.45;108214;1277;59209;-76
2022/02/28 07:17:36;;;;;;;44.40;16.00;;;;;;;-2.08;100.00;102684.68;107983;1280;72989;-76
2022/02/28 07:20:03;;;;;;;32.80;14.60;;;;;;;-2.00;100.00;102688.98;108257;1277;61161;-76
2022/02/28 07:22:31;;;;;;;56.10;17.90;;;;;;;-1.94;100.00;102685.00;108077;1278;60524;-75
2022/02/28 07:24:57;;;;;;;53.90;19.20;;;;;;;-1.88;100.00;102688.60;108042;1280;74976;-75
2022/02/28 07:27:24;;;;;;;42.00;16.00;;;;;;;-1.80;100.00;102689.95;108289;1277;72408;-76
2022/02/28 07:29:52;;;;;;;35.50;14.20;;;;;;;-1.74;99.98;102689.75;108336;1277;72895;-75
2022/02/28 07:32:19;;;;;;;36.80;15.20;;;;;;;-1.67;100.00;102692.48;108131;1278;60206;-77
2022/02/28 07:34:45;;;;;;;44.50;17.20;;;;;;;-1.62;99.89;102696.19;108106;1279;59130;-76
2022/02/28 07:37:11;;;;;;;36.50;14.10;;;;;;;-1.59;99.95;102701.13;108102;1277;59099;-78
2022/02/28 07:39:38;;;;;;;45.30;17.00;;;;;;;-1.60;99.47;102704.61;107421;1279;464501;-76
2022/02/28 07:42:05;;;;;;;42.20;16.70;;;;;;;-1.62;99.32;102706.27;107958;1277;59099;-76
2022/02/28 07:44:32;;;;;;;49.90;19.20;;;;;;;-1.67;99.13;102715.06;107792;1278;59835;-76
2022/02/28 07:46:58;;;;;;;56.00;19.40;;;;;;;-1.69;99.17;102718.58;108215;1277;61038;-76
2022/02/28 07:49:29;;;;;;;38.10;11.10;;;;;;;-1.69;99.44;102722.73;108243;1277;76435;-77
2022/02/28 07:51:56;;;;;;;75.30;25.30;;;;;;;-1.71;99.61;102725.41;108302;1277;71319;-76
2022/02/28 07:54:22;;;;;;;84.90;26.40;;;;;;;-1.67;99.71;102726.86;108147;1277;59158;-76
2022/02/28 07:56:49;;;;;;;31.60;12.30;;;;;;;-1.63;99.97;102728.48;108029;1278;59504;-75
2022/02/28 07:59:19;;;;;;;55.20;18.90;;;;;;;-1.63;100.00;102729.53;108272;1277;61804;-76
2022/02/28 08:01:45;;;;;;;54.80;19.10;;;;;;;-1.62;99.97;102730.70;108276;1277;59576;-76
2022/02/28 08:04:12;;;;;;;62.40;20.10;;;;;;;-1.59;100.00;102734.95;108265;1277;72695;-76
2022/02/28 08:06:38;;;;;;;37.50;14.00;;;;;;;-1.54;100.00;102730.47;108333;1277;59151;-76
2022/02/28 08:09:05;;;;;;;53.20;19.20;;;;;;;-1.51;99.99;102725.67;108286;1277;58989;-75
2022/02/28 08:11:31;;;;;;;52.60;17.80;;;;;;;-1.47;99.93;102726.77;108289;1277;59110;-76
2022/02/28 08:13:58;;;;;;;34.40;12.20;;;;;;;-1.43;99.98;102728.55;108320;1277;76482;-75
2022/02/28 08:16:24;;;;;;;41.80;17.80;;;;;;;-1.42;99.96;102724.20;108196;1277;59124;-76
2022/02/28 08:18:51;;;;;;;52.90;19.90;;;;;;;-1.42;99.73;102727.31;108211;1277;59862;-76
2022/02/28 08:21:17;;;;;;;47.00;15.30;;;;;;;-1.41;99.64;102722.25;108203;1277;59088;-75
2022/02/28 08:23:44;;;;;;;53.50;19.40;;;;;;;-1.38;99.85;102729.29;108127;1279;59423;-76
2022/02/28 08:26:10;;;;;;;38.70;13.90;;;;;;;-1.31;99.76;102727.30;108290;1277;59071;-76
2022/02/28 08:28:40;;;;;;;44.60;15.60;;;;;;;-1.18;99.82;102732.98;108270;1277;59099;-76
2022/02/28 08:31:06;;;;;;;74.40;23.70;;;;;;;-1.04;99.83;102732.56;108015;1280;73011;-76
2022/02/28 08:33:33;;;;;;;48.00;17.50;;;;;;;-0.92;99.60;102728.52;108089;1279;60787;-77
2022/02/28 08:36:08;;;;;;;75.50;24.70;;;;;;;-0.82;99.16;102727.30;108017;1277;60634;-77
2022/02/28 08:38:35;;;;;;;70.80;22.10;;;;;;;-0.74;98.74;102729.15;108239;1277;75944;-77
2022/02/28 08:41:01;;;;;;;40.20;14.80;;;;;;;-0.69;98.08;102731.05;108151;1279;58975;-77
2022/02/28 08:43:30;;;;;;;55.50;21.00;;;;;;;-0.66;97.91;102721.91;108252;1277;74659;-77
2022/02/28 08:45:56;;;;;;;65.10;24.00;;;;;;;-0.58;97.65;102731.17;108122;1277;59496;-76
2022/02/28 08:48:23;;;;;;;74.90;25.90;;;;;;;-0.49;97.56;102733.48;108149;1278;59065;-77
2022/02/28 08:50:49;;;;;;;81.10;25.90;;;;;;;-0.41;97.13;102734.44;108226;1277;59792;-76
2022/02/28 08:53:20;;;;;;;61.80;24.70;;;;;;;-0.37;96.57;102736.73;108298;1277;72315;-77
2022/02/28 08:55:47;;;;;;;67.10;23.90;;;;;;;-0.31;96.27;102737.39;108266;1277;73063;-76
2022/02/28 08:58:13;;;;;;;53.90;19.40;;;;;;;-0.27;96.13;102740.91;108323;1277;61458;-76
2022/02/28 09:00:40;;;;;;;70.00;24.30;;;;;;;-0.22;96.15;102738.98;108300;1277;59047;-76
2022/02/28 09:03:08;;;;;;;85.90;31.80;;;;;;;-0.12;96.07;102734.98;108289;1277;74430;-76
2022/02/28 09:05:37;;;;;;;65.10;22.90;;;;;;;-0.01;96.12;102733.20;108032;1277;71305;-76
2022/02/28 09:08:04;;;;;;;55.40;24.10;;;;;;;0.08;95.39;102730.42;108117;1279;74151;-77
2022/02/28 09:10:31;;;;;;;73.30;25.40;;;;;;;0.13;94.53;102732.13;108144;1280;61437;-76
2022/02/28 09:13:02;;;;;;;61.20;24.10;;;;;;;0.21;94.32;102726.11;108337;1277;60586;-76
2022/02/28 09:15:31;;;;;;;73.10;26.60;;;;;;;0.29;94.20;102729.79;107971;1279;76491;-77
2022/02/28 09:17:58;;;;;;;62.60;24.20;;;;;;;0.40;93.89;102728.87;108042;1277;71373;-77
2022/02/28 09:20:26;;;;;;;75.10;24.90;;;;;;;0.50;93.78;102731.28;108237;1277;71166;-77
2022/02/28 09:22:52;;;;;;;83.70;29.50;;;;;;;0.55;92.83;102726.55;108254;1277;59091;-78
2022/02/28 09:25:20;;;;;;;58.30;23.00;;;;;;;0.64;92.74;102728.98;108044;1280;60296;-75
2022/02/28 09:27:49;;;;;;;73.40;26.90;;;;;;;0.70;91.68;102727.36;108240;1277;75983;-79
2022/02/28 09:30:19;;;;;;;105.50;33.40;;;;;;;0.69;90.75;102732.64;108105;1277;71052;-77
2022/02/28 09:32:46;;;;;;;109.70;34.40;;;;;;;0.73;91.30;102738.73;108264;1277;72910;-76
2022/02/28 09:35:13;;;;;;;52.50;20.80;;;;;;;0.81;91.21;102738.23;108289;1277;60368;-77
2022/02/28 09:37:40;;;;;;;75.60;29.40;;;;;;;0.79;90.03;102742.30;108268;1277;61351;-76
2022/02/28 09:40:07;;;;;;;59.50;22.00;;;;;;;0.85;90.54;102744.73;108302;1277;74853;-76
2022/02/28 09:42:34;;;;;;;58.40;22.60;;;;;;;0.96;90.47;102745.13;108025;1278;71437;-75
2022/02/28 09:45:03;;;;;;;79.90;28.60;;;;;;;0.98;89.23;102750.63;108249;1277;73521;-77
2022/02/28 09:47:32;;;;;;;59.50;23.90;;;;;;;0.99;89.26;102755.63;108241;1277;61750;-77
2022/02/28 09:50:01;;;;;;;72.90;27.60;;;;;;;1.00;89.01;102755.24;108077;1277;61897;-76
2022/02/28 09:52:30;;;;;;;63.90;25.40;;;;;;;1.02;89.12;102752.41;108299;1277;75129;-77
2022/02/28 09:54:57;;;;;;;53.70;22.30;;;;;;;1.05;89.44;102755.89;107757;1280;72700;-77
2022/02/28 09:57:23;;;;;;;58.40;25.00;;;;;;;1.15;89.67;102755.14;108151;1277;73885;-75
2022/02/28 09:59:50;;;;;;;54.70;22.20;;;;;;;1.31;89.62;102758.71;108055;1277;61357;-76
2022/02/28 10:02:17;;;;;;;38.20;17.00;;;;;;;1.46;89.02;102760.33;108303;1276;59193;-77
2022/02/28 10:04:45;;;;;;;57.60;22.70;;;;;;;1.57;88.69;102761.25;108227;1277;76043;-77
2022/02/28 10:07:21;;;;;;;40.10;15.70;;;;;;;1.72;88.59;102765.51;108293;1277;71320;-76
2022/02/28 10:10:02;;;;;;;60.30;22.80;;;;;;;1.96;88.43;102762.72;108042;1279;73495;-76
2022/02/28 10:12:32;;;;;;;49.70;21.00;;;;;;;2.14;87.49;102761.39;108043;1277;61506;-76
2022/02/28 10:15:05;;;;;;;54.30;24.10;;;;;;;2.18;85.66;102762.41;108129;1278;60182;-76
2022/02/28 10:17:49;;;;;;;53.70;22.60;;;;;;;2.21;85.12;102765.42;108031;1279;74607;-77
2022/02/28 10:20:28;;;;;;;33.40;14.70;;;;;;;2.20;84.49;102768.44;108244;1276;71349;-76
2022/02/28 10:22:56;;;;;;;45.50;19.20;;;;;;;2.16;84.07;102772.44;108271;1277;72905;-76
2022/02/28 10:25:30;;;;;;;39.20;19.80;;;;;;;2.18;84.34;102769.93;108296;1277;62371;-75
2022/02/28 10:28:17;;;;;;;38.90;18.50;;;;;;;2.19;84.33;102771.27;108191;1277;60728;-76
2022/02/28 10:30:54;;;;;;;41.10;19.00;;;;;;;2.19;84.49;102777.58;108201;1277;76229;-76
2022/02/28 10:33:25;;;;;;;25.90;12.10;;;;;;;2.24;84.69;102770.52;108284;1277;72423;-75
2022/02/28 10:36:01;;;;;;;30.50;13.70;;;;;;;2.28;84.31;102771.75;107739;1279;72908;-78
2022/02/28 10:38:32;;;;;;;45.90;20.70;;;;;;;2.29;84.16;102769.79;108087;1277;61369;-75
2022/02/28 10:40:59;;;;;;;28.50;13.50;;;;;;;2.42;84.46;102771.45;108014;1277;60804;-77
2022/02/28 10:43:33;;;;;;;32.80;14.90;;;;;;;2.52;84.07;102766.63;108078;1277;75242;-77
2022/02/28 10:46:16;;;;;;;31.90;13.70;;;;;;;2.52;82.90;102762.10;108305;1277;71376;-76
2022/02/28 10:49:07;;;;;;;37.80;17.20;;;;;;;2.33;81.93;102763.16;108098;1277;76025;-77
2022/02/28 10:51:54;;;;;;;32.70;15.70;;;;;;;2.20;82.32;102760.92;108283;1277;61247;-77
2022/02/28 10:54:25;;;;;;;35.20;16.10;;;;;;;2.14;82.67;102758.25;108221;1277;60309;-77
2022/02/28 10:56:56;;;;;;;40.90;19.20;;;;;;;2.27;83.63;102756.10;108279;1277;75741;-76
2022/02/28 10:59:41;;;;;;;22.60;11.10;;;;;;;2.57;84.78;102752.41;108274;1277;72730;-75
2022/02/28 11:02:21;;;;;;;34.80;16.30;;;;;;;2.81;83.11;102749.87;108099;1278;74387;-77
2022/02/28 11:04:49;;;;;;;37.10;17.10;;;;;;;3.01;82.75;102747.19;107964;1279;61546;-78